| time (UTC) | temp F | wind direction | speed knots | gust knots | rain 1hr in | rain 24hr in | rain mn in | humidity % | barometer mb |
| 20260509162655 | 51 | 36 | 1.7 | 6.1 | 0.00 | 0.00 | 0.00 | 58 | 972.1 |
| 20260509162125 | 51 | 103 | 2.6 | 7.0 | 0.00 | 0.00 | 0.00 | 57 | 972.2 |
| 20260509161625 | 51 | 163 | 2.6 | 10.4 | 0.00 | 0.00 | 0.00 | 56 | 972.1 |
| 20260509161055 | 51 | 155 | 3.5 | 10.4 | 0.00 | 0.00 | 0.00 | 55 | 972.2 |
| 20260509160555 | 51 | 166 | 2.6 | 7.8 | 0.00 | 0.00 | 0.00 | 56 | 972.3 |
| 20260509160055 | 52 | 203 | 3.5 | 8.7 | 0.00 | 0.00 | 0.00 | 55 | 972.4 |
| 20260509155555 | 52 | 162 | 3.5 | 10.4 | 0.00 | 0.00 | 0.00 | 55 | 972.5 |
| 20260509155055 | 52 | 171 | 4.3 | 11.3 | 0.00 | 0.00 | 0.00 | 54 | 972.6 |
| 20260509154555 | 52 | 166 | 4.3 | 12.2 | 0.00 | 0.00 | 0.00 | 53 | 972.6 |
| 20260509154055 | 52 | 127 | 5.2 | 12.2 | 0.00 | 0.00 | 0.00 | 51 | 972.5 |
| 20260509153555 | 52 | 132 | 4.3 | 9.6 | 0.00 | 0.00 | 0.00 | 51 | 972.6 |
| 20260509153025 | 53 | 188 | 4.3 | 11.3 | 0.00 | 0.00 | 0.00 | 50 | 972.6 |
| 20260509152525 | 53 | 157 | 4.3 | 11.3 | 0.00 | 0.00 | 0.00 | 48 | 972.5 |
| 20260509152025 | 53 | 152 | 5.2 | 11.3 | 0.00 | 0.00 | 0.00 | 47 | 972.4 |
| 20260509151525 | 53 | 176 | 5.2 | 9.6 | 0.00 | 0.00 | 0.00 | 48 | 972.6 |
| 20260509150955 | 53 | 164 | 4.3 | 9.6 | 0.00 | 0.00 | 0.00 | 47 | 972.4 |
| 20260509150425 | 53 | 181 | 3.5 | 9.6 | 0.00 | 0.00 | 0.00 | 48 | 972.6 |
| 20260509145924 | 53 | 215 | 3.5 | 9.6 | 0.00 | 0.00 | 0.00 | 48 | 972.7 |
| 20260509145355 | 53 | 230 | 3.5 | 7.0 | 0.00 | 0.00 | 0.00 | 47 | 972.7 |
| 20260509144854 | 53 | 270 | 3.5 | 7.0 | 0.00 | 0.00 | 0.00 | 47 | 972.7 |
| 20260509144354 | 53 | 246 | 3.5 | 9.6 | 0.00 | 0.00 | 0.00 | 47 | 972.8 |
| 20260509143854 | 53 | 200 | 4.3 | 10.4 | 0.00 | 0.00 | 0.00 | 47 | 972.8 |
| 20260509143354 | 53 | 173 | 4.3 | 11.3 | 0.00 | 0.00 | 0.00 | 47 | 972.7 |
| 20260509142854 | 53 | 248 | 3.5 | 11.3 | 0.00 | 0.00 | 0.00 | 47 | 972.8 |
| 20260509142354 | 54 | 222 | 3.5 | 10.4 | 0.00 | 0.00 | 0.00 | 47 | 973.0 |
| 20260509141854 | 54 | 237 | 3.5 | 10.4 | 0.00 | 0.00 | 0.00 | 46 | 973.0 |
| 20260509141354 | 54 | 246 | 4.3 | 11.3 | 0.00 | 0.00 | 0.00 | 47 | 973.0 |
| 20260509140854 | 54 | 262 | 5.2 | 13.0 | 0.00 | 0.00 | 0.00 | 46 | 973.0 |
| 20260509140324 | 54 | 236 | 5.2 | 13.0 | 0.00 | 0.00 | 0.00 | 47 | 973.0 |
| 20260509135824 | 55 | 252 | 5.2 | 14.8 | 0.00 | 0.00 | 0.00 | 47 | 973.2 |
| 20260509135324 | 55 | 255 | 5.2 | 19.1 | 0.00 | 0.00 | 0.00 | 46 | 973.3 |
| 20260509134824 | 55 | 265 | 5.2 | 19.1 | 0.00 | 0.00 | 0.00 | 46 | 973.3 |
| 20260509134324 | 54 | 297 | 4.3 | 12.2 | 0.00 | 0.00 | 0.00 | 48 | 973.4 |
| 20260509133754 | 54 | 172 | 4.3 | 12.2 | 0.00 | 0.00 | 0.00 | 47 | 973.3 |
| 20260509133254 | 54 | 249 | 4.3 | 10.4 | 0.00 | 0.00 | 0.00 | 48 | 973.7 |
| 20260509132724 | 54 | 207 | 4.3 | 13.9 | 0.00 | 0.00 | 0.00 | 48 | 973.7 |
| 20260509132224 | 54 | 218 | 4.3 | 13.9 | 0.00 | 0.00 | 0.00 | 47 | 973.6 |
| 20260509131724 | 54 | 233 | 4.3 | 13.9 | 0.00 | 0.00 | 0.00 | 48 | 973.7 |
| 20260509131154 | 54 | 192 | 4.3 | 10.4 | 0.00 | 0.00 | 0.00 | 48 | 973.8 |
| 20260509130654 | 54 | 255 | 4.3 | 17.4 | 0.00 | 0.00 | 0.00 | 47 | 973.9 |
| 20260509130154 | 54 | 206 | 6.1 | 17.4 | 0.00 | 0.00 | 0.00 | 47 | 973.9 |
| 20260509125624 | 54 | 222 | 6.1 | 13.0 | 0.00 | 0.00 | 0.00 | 46 | 974.0 |
| 20260509125124 | 55 | 201 | 4.3 | 12.2 | 0.00 | 0.00 | 0.00 | 47 | 974.0 |
| 20260509124624 | 55 | 202 | 4.3 | 8.7 | 0.00 | 0.00 | 0.00 | 48 | 974.1 |
| 20260509124054 | 55 | 286 | 4.3 | 17.4 | 0.00 | 0.00 | 0.00 | 47 | 974.1 |
| 20260509123554 | 55 | 208 | 5.2 | 24.3 | 0.00 | 0.00 | 0.00 | 47 | 974.1 |
| 20260509123054 | 55 | 243 | 5.2 | 24.3 | 0.00 | 0.00 | 0.00 | 45 | 974.0 |
| 20260509122554 | 55 | 255 | 4.3 | 12.2 | 0.00 | 0.00 | 0.00 | 48 | 974.2 |
| 20260509122024 | 55 | 265 | 5.2 | 20.0 | 0.00 | 0.00 | 0.00 | 47 | 974.1 |
| 20260509121524 | 54 | 237 | 6.1 | 20.0 | 0.00 | 0.00 | 0.00 | 47 | 974.3 |
| 20260509121024 | 54 | 229 | 6.1 | 20.9 | 0.00 | 0.00 | 0.00 | 48 | 974.3 |
| 20260509120454 | 54 | 202 | 6.1 | 20.9 | 0.00 | 0.00 | 0.00 | 48 | 974.3 |
| 20260509115954 | 54 | 204 | 6.1 | 21.7 | 0.00 | 0.00 | 0.00 | 48 | 974.3 |
| 20260509115424 | 54 | 219 | 6.1 | 21.7 | 0.00 | 0.00 | 0.00 | 48 | 974.3 |
| 20260509114924 | 54 | 201 | 6.1 | 18.2 | 0.00 | 0.00 | 0.00 | 48 | 974.3 |
| 20260509114423 | 54 | 198 | 5.2 | 15.6 | 0.00 | 0.00 | 0.00 | 47 | 974.4 |
| 20260509113924 | 55 | 254 | 4.3 | 15.6 | 0.00 | 0.00 | 0.00 | 48 | 974.4 |
| 20260509113423 | 55 | 269 | 4.3 | 14.8 | 0.00 | 0.00 | 0.00 | 47 | 974.4 |
| 20260509112853 | 54 | 309 | 5.2 | 15.6 | 0.00 | 0.00 | 0.00 | 45 | 974.4 |
| 20260509112353 | 55 | 143 | 5.2 | 15.6 | 0.00 | 0.00 | 0.00 | 46 | 974.4 |
| 20260509111853 | 55 | 294 | 6.1 | 19.1 | 0.00 | 0.00 | 0.00 | 45 | 974.4 |
| 20260509111323 | 55 | 21 | 6.1 | 19.1 | 0.00 | 0.00 | 0.00 | 45 | 974.4 |
| 20260509110823 | 55 | 174 | 5.2 | 19.1 | 0.00 | 0.00 | 0.00 | 46 | 974.7 |
| 20260509110323 | 55 | 204 | 4.3 | 13.0 | 0.00 | 0.00 | 0.00 | 47 | 974.6 |
| 20260509105753 | 54 | 198 | 4.3 | 12.2 | 0.00 | 0.00 | 0.00 | 47 | 974.7 |
| 20260509105253 | 54 | 83 | 4.3 | 13.9 | 0.00 | 0.00 | 0.00 | 46 | 974.6 |
| 20260509104753 | 55 | 216 | 4.3 | 13.9 | 0.00 | 0.00 | 0.00 | 46 | 974.8 |
| 20260509104253 | 55 | 246 | 5.2 | 20.0 | 0.00 | 0.00 | 0.00 | 45 | 974.6 |
| 20260509103753 | 56 | 203 | 6.1 | 20.0 | 0.00 | 0.00 | 0.00 | 44 | 974.6 |
| 20260509103253 | 56 | 138 | 6.1 | 22.6 | 0.00 | 0.00 | 0.00 | 44 | 974.6 |
| 20260509102723 | 56 | 45 | 5.2 | 22.6 | 0.00 | 0.00 | 0.00 | 43 | 974.7 |
| 20260509102223 | 56 | 196 | 5.2 | 22.6 | 0.00 | 0.00 | 0.00 | 43 | 974.7 |
| 20260509101653 | 56 | 257 | 4.3 | 12.2 | 0.00 | 0.00 | 0.00 | 45 | 974.9 |
| 20260509101123 | 56 | 228 | 5.2 | 15.6 | 0.00 | 0.00 | 0.00 | 44 | 974.9 |
| 20260509100623 | 56 | 193 | 5.2 | 15.6 | 0.00 | 0.00 | 0.00 | 45 | 974.8 |
| 20260509100123 | 56 | 149 | 5.2 | 15.6 | 0.00 | 0.00 | 0.00 | 44 | 975.0 |
| 20260509095623 | 56 | 186 | 4.3 | 12.2 | 0.00 | 0.00 | 0.00 | 45 | 975.1 |
| 20260509095053 | 56 | 91 | 4.3 | 13.9 | 0.00 | 0.00 | 0.00 | 43 | 975.0 |
| 20260509094553 | 56 | 257 | 4.3 | 13.9 | 0.00 | 0.00 | 0.00 | 45 | 975.1 |
| 20260509094053 | 56 | 194 | 3.5 | 13.0 | 0.00 | 0.00 | 0.00 | 45 | 975.1 |
| 20260509093553 | 56 | 235 | 3.5 | 7.8 | 0.00 | 0.00 | 0.00 | 47 | 975.2 |
| 20260509093053 | 56 | 201 | 3.5 | 7.8 | 0.00 | 0.00 | 0.00 | 47 | 975.3 |
| 20260509092553 | 55 | 325 | 3.5 | 7.8 | 0.00 | 0.00 | 0.00 | 45 | 975.2 |
| 20260509092053 | 55 | 200 | 3.5 | 9.6 | 0.00 | 0.00 | 0.00 | 46 | 975.3 |
| 20260509091553 | 55 | 271 | 3.5 | 9.6 | 0.00 | 0.00 | 0.00 | 47 | 975.3 |
| 20260509091053 | 55 | 219 | 3.5 | 9.6 | 0.00 | 0.00 | 0.00 | 48 | 975.3 |
| 20260509090552 | 55 | 182 | 4.3 | 9.6 | 0.00 | 0.00 | 0.00 | 48 | 975.3 |
| 20260509090052 | 55 | 223 | 4.3 | 9.6 | 0.00 | 0.00 | 0.00 | 47 | 975.2 |
| 20260509085522 | 55 | 172 | 4.3 | 11.3 | 0.00 | 0.00 | 0.00 | 47 | 975.1 |
| 20260509085022 | 56 | 172 | 4.3 | 11.3 | 0.00 | 0.00 | 0.00 | 47 | 975.3 |
| 20260509084522 | 56 | 262 | 5.2 | 11.3 | 0.00 | 0.00 | 0.00 | 46 | 975.2 |
| 20260509084022 | 56 | 215 | 5.2 | 12.2 | 0.00 | 0.00 | 0.00 | 47 | 975.4 |
| 20260509083452 | 57 | 231 | 4.3 | 12.2 | 0.00 | 0.00 | 0.00 | 45 | 975.3 |
| 20260509082952 | 57 | 182 | 4.3 | 11.3 | 0.00 | 0.00 | 0.00 | 46 | 975.4 |
| 20260509082452 | 58 | 257 | 3.5 | 11.3 | 0.00 | 0.00 | 0.00 | 46 | 975.4 |
| 20260509081952 | 58 | 144 | 3.5 | 10.4 | 0.00 | 0.00 | 0.00 | 45 | 975.3 |
| 20260509081452 | 57 | 184 | 4.3 | 11.3 | 0.00 | 0.00 | 0.00 | 48 | 975.4 |
| 20260509080952 | 56 | 143 | 4.3 | 11.3 | 0.00 | 0.00 | 0.00 | 46 | 975.3 |
| 20260509080422 | 56 | 246 | 4.3 | 18.2 | 0.00 | 0.00 | 0.00 | 47 | 975.4 |
| 20260509075852 | 56 | 226 | 4.3 | 18.2 | 0.00 | 0.00 | 0.00 | 47 | 975.3 |
| 20260509075352 | 56 | 225 | 4.3 | 14.8 | 0.00 | 0.00 | 0.00 | 47 | 975.4 |
| 20260509074852 | 56 | 246 | 5.2 | 14.8 | 0.00 | 0.00 | 0.00 | 45 | 975.4 |
| 20260509074322 | 57 | 49 | 5.2 | 18.2 | 0.00 | 0.00 | 0.00 | 48 | 975.4 |
| 20260509073822 | 56 | 82 | 5.2 | 18.2 | 0.00 | 0.00 | 0.00 | 48 | 975.5 |
| 20260509073252 | 56 | 107 | 5.2 | 16.5 | 0.00 | 0.00 | 0.00 | 48 | 975.5 |
| 20260509072752 | 56 | 61 | 5.2 | 16.5 | 0.00 | 0.00 | 0.00 | 49 | 975.6 |
| 20260509072252 | 56 | 195 | 5.2 | 16.5 | 0.00 | 0.00 | 0.00 | 50 | 975.7 |
| 20260509071752 | 55 | 194 | 5.2 | 13.9 | 0.00 | 0.00 | 0.00 | 50 | 975.8 |
| 20260509071222 | 54 | 206 | 4.3 | 15.6 | 0.00 | 0.00 | 0.00 | 50 | 975.7 |
| 20260509070722 | 54 | 205 | 4.3 | 15.6 | 0.00 | 0.00 | 0.00 | 50 | 975.6 |
| 20260509070222 | 56 | 249 | 4.3 | 13.0 | 0.00 | 0.00 | 0.00 | 50 | 975.9 |
| 20260509065722 | 55 | 217 | 4.3 | 13.0 | 0.00 | 0.00 | 0.00 | 49 | 975.6 |
| 20260509065152 | 56 | 242 | 4.3 | 11.3 | 0.00 | 0.00 | 0.00 | 50 | 975.8 |
| 20260509064652 | 53 | 252 | 4.3 | 13.0 | 0.00 | 0.00 | 0.00 | 50 | 975.6 |
| 20260509064152 | 54 | 246 | 4.3 | 19.1 | 0.00 | 0.00 | 0.00 | 50 | 975.6 |
| 20260509063622 | 54 | 197 | 5.2 | 19.1 | 0.00 | 0.00 | 0.00 | 51 | 975.7 |
| 20260509063122 | 53 | 171 | 4.3 | 11.3 | 0.00 | 0.00 | 0.00 | 51 | 975.6 |
| 20260509062622 | 52 | 213 | 4.3 | 16.5 | 0.00 | 0.00 | 0.00 | 52 | 975.6 |
| 20260509062122 | 52 | 52 | 4.3 | 16.5 | 0.00 | 0.00 | 0.00 | 52 | 975.6 |
| 20260509061622 | 53 | 167 | 4.3 | 13.9 | 0.00 | 0.00 | 0.00 | 52 | 975.6 |
| 20260509061122 | 52 | 260 | 4.3 | 9.6 | 0.00 | 0.00 | 0.00 | 52 | 975.6 |
| 20260509060552 | 54 | 208 | 4.3 | 13.9 | 0.00 | 0.00 | 0.00 | 50 | 975.7 |
| 20260509060052 | 54 | 248 | 5.2 | 13.9 | 0.00 | 0.00 | 0.00 | 51 | 975.7 |
| 20260509055522 | 53 | 201 | 4.3 | 11.3 | 0.00 | 0.00 | 0.00 | 51 | 975.7 |
| 20260509055022 | 53 | 244 | 4.3 | 13.9 | 0.00 | 0.00 | 0.00 | 53 | 975.7 |
| 20260509054522 | 51 | 263 | 4.3 | 14.8 | 0.00 | 0.00 | 0.00 | 54 | 975.7 |
| 20260509054022 | 49 | 248 | 4.3 | 16.5 | 0.00 | 0.00 | 0.00 | 56 | 975.7 |
| 20260509053452 | 49 | 212 | 4.3 | 16.5 | 0.00 | 0.00 | 0.00 | 54 | 975.7 |
| 20260509052952 | 49 | 99 | 4.3 | 14.8 | 0.00 | 0.00 | 0.00 | 53 | 975.7 |
| 20260509052422 | 50 | 175 | 5.2 | 20.0 | 0.00 | 0.00 | 0.00 | 52 | 975.6 |
| 20260509051852 | 52 | 163 | 4.3 | 20.0 | 0.00 | 0.00 | 0.00 | 50 | 975.8 |
| 20260509051352 | 53 | 247 | 4.3 | 19.1 | 0.00 | 0.00 | 0.00 | 49 | 975.8 |
| 20260509050852 | 54 | 0 | 4.3 | 19.1 | 0.00 | 0.00 | 0.00 | 48 | 975.8 |
| 20260509050351 | 54 | 199 | 4.3 | 10.4 | 0.00 | 0.00 | 0.00 | 48 | 975.7 |
| 20260509045851 | 53 | 190 | 4.3 | 9.6 | 0.00 | 0.00 | 0.00 | 48 | 975.8 |
| 20260509045351 | 53 | 268 | 4.3 | 11.3 | 0.00 | 0.00 | 0.00 | 49 | 975.9 |
| 20260509044821 | 53 | 247 | 4.3 | 14.8 | 0.00 | 0.00 | 0.00 | 49 | 975.8 |
| 20260509044251 | 53 | 230 | 4.3 | 14.8 | 0.00 | 0.00 | 0.00 | 50 | 975.9 |
| 20260509043751 | 51 | 254 | 4.3 | 11.3 | 0.00 | 0.00 | 0.00 | 52 | 975.9 |
| 20260509043251 | 51 | 243 | 4.3 | 11.3 | 0.00 | 0.00 | 0.00 | 52 | 975.9 |
| 20260509042751 | 51 | 196 | 4.3 | 10.4 | 0.00 | 0.00 | 0.00 | 52 | 976.2 |
| 20260509042251 | 50 | 338 | 4.3 | 10.4 | 0.00 | 0.00 | 0.00 | 52 | 976.1 |
| 20260509041751 | 50 | 197 | 4.3 | 10.4 | 0.00 | 0.00 | 0.00 | 53 | 976.0 |
| 20260509041251 | 50 | 255 | 4.3 | 9.6 | 0.00 | 0.00 | 0.00 | 54 | 976.1 |
| 20260509040751 | 49 | 185 | 3.5 | 8.7 | 0.00 | 0.00 | 0.00 | 54 | 976.0 |
| 20260509040251 | 48 | 231 | 4.3 | 12.2 | 0.00 | 0.00 | 0.00 | 56 | 976.0 |
| 20260509035721 | 47 | 64 | 5.2 | 14.8 | 0.00 | 0.00 | 0.00 | 57 | 976.2 |
| 20260509035221 | 47 | 59 | 5.2 | 14.8 | 0.00 | 0.00 | 0.00 | 56 | 976.1 |
| 20260509034721 | 46 | 219 | 5.2 | 13.9 | 0.00 | 0.00 | 0.00 | 59 | 976.1 |
| 20260509034221 | 45 | 97 | 4.3 | 12.2 | 0.00 | 0.00 | 0.00 | 61 | 976.1 |
| 20260509033721 | 45 | 222 | 5.2 | 13.9 | 0.00 | 0.00 | 0.00 | 62 | 976.2 |
| 20260509033221 | 45 | 211 | 5.2 | 13.9 | 0.00 | 0.00 | 0.00 | 62 | 976.2 |
| 20260509032651 | 45 | 77 | 5.2 | 13.9 | 0.00 | 0.00 | 0.00 | 62 | 976.2 |
| 20260509032151 | 45 | 46 | 3.5 | 10.4 | 0.00 | 0.00 | 0.00 | 63 | 976.2 |
| 20260509031621 | 45 | 46 | 4.3 | 11.3 | 0.00 | 0.00 | 0.00 | 63 | 976.1 |
| 20260509031121 | 45 | 91 | 4.3 | 11.3 | 0.00 | 0.00 | 0.00 | 63 | 976.2 |
| 20260509030551 | 45 | 34 | 4.3 | 10.4 | 0.00 | 0.00 | 0.00 | 62 | 976.2 |
| 20260509030051 | 45 | 52 | 5.2 | 15.6 | 0.00 | 0.00 | 0.00 | 62 | 976.2 |
| 20260509025551 | 45 | 58 | 4.3 | 15.6 | 0.00 | 0.00 | 0.00 | 61 | 976.1 |
| 20260509025051 | 45 | 68 | 4.3 | 15.6 | 0.00 | 0.00 | 0.00 | 61 | 976.0 |
| 20260509024551 | 45 | 44 | 4.3 | 12.2 | 0.00 | 0.00 | 0.00 | 61 | 976.0 |
| 20260509024051 | 45 | 79 | 3.5 | 11.3 | 0.00 | 0.00 | 0.00 | 61 | 976.0 |
| 20260509023521 | 45 | 204 | 3.5 | 9.6 | 0.00 | 0.00 | 0.00 | 62 | 976.0 |
| 20260509023021 | 44 | 288 | 3.5 | 9.6 | 0.00 | 0.00 | 0.00 | 64 | 976.0 |
| 20260509022521 | 44 | 58 | 3.5 | 9.6 | 0.00 | 0.00 | 0.00 | 65 | 976.0 |
| 20260509022021 | 44 | 164 | 4.3 | 9.6 | 0.00 | 0.00 | 0.00 | 65 | 976.0 |
| 20260509021451 | 44 | 67 | 4.3 | 9.6 | 0.00 | 0.00 | 0.00 | 64 | 976.1 |
| 20260509020950 | 44 | 57 | 4.3 | 11.3 | 0.00 | 0.00 | 0.00 | 64 | 976.1 |
| 20260509020421 | 44 | 95 | 3.5 | 11.3 | 0.00 | 0.00 | 0.00 | 63 | 976.1 |
| 20260509015920 | 44 | 99 | 4.3 | 10.4 | 0.00 | 0.00 | 0.00 | 62 | 976.1 |
| 20260509015420 | 45 | 31 | 4.3 | 10.4 | 0.00 | 0.00 | 0.00 | 62 | 976.2 |
| 20260509014920 | 45 | 0 | 4.3 | 10.4 | 0.00 | 0.00 | 0.00 | 62 | 976.1 |
| 20260509014350 | 45 | 78 | 3.5 | 9.6 | 0.00 | 0.00 | 0.00 | 62 | 976.2 |
| 20260509013850 | 44 | 87 | 4.3 | 10.4 | 0.00 | 0.00 | 0.00 | 62 | 976.2 |
| 20260509013350 | 45 | 62 | 4.3 | 10.4 | 0.00 | 0.00 | 0.00 | 62 | 976.2 |
| 20260509012850 | 45 | 54 | 4.3 | 10.4 | 0.00 | 0.00 | 0.00 | 62 | 976.2 |
| 20260509012350 | 45 | 75 | 4.3 | 9.6 | 0.00 | 0.00 | 0.00 | 61 | 976.2 |
| 20260509011820 | 45 | 73 | 5.2 | 11.3 | 0.00 | 0.00 | 0.00 | 60 | 976.2 |
| 20260509011320 | 45 | 54 | 5.2 | 11.3 | 0.00 | 0.00 | 0.00 | 60 | 976.2 |
| 20260509010820 | 46 | 44 | 7.0 | 12.2 | 0.00 | 0.00 | 0.00 | 59 | 976.3 |
| 20260509010320 | 46 | 77 | 7.0 | 13.9 | 0.00 | 0.00 | 0.00 | 59 | 976.2 |
| 20260509005820 | 46 | 47 | 6.1 | 13.9 | 0.00 | 0.00 | 0.00 | 59 | 976.2 |
| 20260509005320 | 46 | 68 | 5.2 | 12.2 | 0.00 | 0.00 | 0.00 | 60 | 976.3 |
| 20260509004820 | 45 | 76 | 5.2 | 12.2 | 0.00 | 0.00 | 0.00 | 61 | 976.1 |
| 20260509004250 | 45 | 117 | 5.2 | 11.3 | 0.00 | 0.00 | 0.00 | 62 | 976.3 |
| 20260509003750 | 45 | 73 | 4.3 | 11.3 | 0.00 | 0.00 | 0.00 | 62 | 976.2 |
| 20260509003250 | 45 | 105 | 4.3 | 10.4 | 0.00 | 0.00 | 0.00 | 62 | 976.3 |
| 20260509002720 | 46 | 63 | 5.2 | 11.3 | 0.00 | 0.00 | 0.00 | 61 | 976.3 |
| 20260509002220 | 46 | 62 | 4.3 | 11.3 | 0.00 | 0.00 | 0.00 | 60 | 976.4 |
| 20260509001720 | 46 | 57 | 3.5 | 11.3 | 0.00 | 0.00 | 0.00 | 59 | 976.3 |
| 20260509001220 | 46 | 8 | 3.5 | 11.3 | 0.00 | 0.00 | 0.00 | 59 | 976.3 |
| 20260509000720 | 46 | 209 | 3.5 | 9.6 | 0.00 | 0.00 | 0.00 | 60 | 976.4 |
| 20260509000220 | 46 | 50 | 4.3 | 9.6 | 0.00 | 0.00 | 0.00 | 61 | 976.3 |
| 20260508235650 | 45 | 217 | 5.2 | 11.3 | 0.00 | 0.00 | 0.00 | 63 | 976.5 |
| 20260508235150 | 45 | 64 | 5.2 | 11.3 | 0.00 | 0.00 | 0.00 | 63 | 976.5 |
| 20260508234650 | 45 | 95 | 5.2 | 9.6 | 0.00 | 0.00 | 0.00 | 62 | 976.6 |
| 20260508234149 | 45 | 51 | 5.2 | 9.6 | 0.00 | 0.00 | 0.00 | 62 | 976.5 |
| 20260508233620 | 45 | 75 | 5.2 | 9.6 | 0.00 | 0.00 | 0.00 | 62 | 976.6 |
| 20260508233119 | 46 | 42 | 4.3 | 9.6 | 0.00 | 0.00 | 0.00 | 60 | 976.5 |
| 20260508232550 | 46 | 66 | 4.3 | 9.6 | 0.00 | 0.00 | 0.00 | 59 | 976.5 |
| 20260508232049 | 46 | 51 | 4.3 | 8.7 | 0.00 | 0.00 | 0.00 | 58 | 976.5 |
| 20260508231550 | 46 | 60 | 4.3 | 7.8 | 0.00 | 0.00 | 0.00 | 57 | 976.3 |
| 20260508231049 | 46 | 49 | 3.5 | 7.0 | 0.00 | 0.00 | 0.00 | 57 | 976.2 |
| 20260508230520 | 46 | 50 | 3.5 | 7.0 | 0.00 | 0.00 | 0.00 | 57 | 976.2 |
| 20260508225949 | 46 | 49 | 3.5 | 7.0 | 0.00 | 0.00 | 0.00 | 57 | 976.3 |
| 20260508225449 | 46 | 62 | 3.5 | 7.0 | 0.00 | 0.00 | 0.00 | 56 | 976.3 |
| 20260508224949 | 46 | 30 | 3.5 | 7.0 | 0.00 | 0.00 | 0.00 | 56 | 976.3 |
| 20260508224419 | 46 | 39 | 2.6 | 6.1 | 0.00 | 0.00 | 0.00 | 54 | 976.4 |
| 20260508223919 | 47 | 35 | 2.6 | 6.1 | 0.00 | 0.00 | 0.00 | 53 | 976.4 |
| 20260508223349 | 47 | 61 | 0.9 | 3.5 | 0.00 | 0.00 | 0.00 | 52 | 976.4 |
| 20260508222849 | 47 | 158 | 1.7 | 3.5 | 0.00 | 0.00 | 0.00 | 52 | 976.4 |
| 20260508222319 | 47 | 154 | 1.7 | 5.2 | 0.00 | 0.00 | 0.00 | 52 | 976.3 |
| 20260508221819 | 47 | 199 | 2.6 | 8.7 | 0.00 | 0.00 | 0.00 | 51 | 976.3 |
| 20260508221249 | 47 | 207 | 2.6 | 8.7 | 0.00 | 0.00 | 0.00 | 50 | 976.4 |
| 20260508220750 | 47 | 209 | 2.6 | 8.7 | 0.00 | 0.00 | 0.00 | 50 | 976.3 |
| 20260508220249 | 47 | 257 | 2.6 | 7.0 | 0.00 | 0.00 | 0.00 | 51 | 976.3 |
| 20260508215749 | 47 | 225 | 2.6 | 6.1 | 0.00 | 0.00 | 0.00 | 51 | 976.4 |
| 20260508215249 | 47 | 231 | 2.6 | 7.0 | 0.00 | 0.00 | 0.00 | 50 | 976.4 |
| 20260508214749 | 47 | 193 | 2.6 | 7.0 | 0.00 | 0.00 | 0.00 | 50 | 976.4 |
| 20260508214249 | 47 | 226 | 2.6 | 7.0 | 0.00 | 0.00 | 0.00 | 50 | 976.3 |
| 20260508213749 | 47 | 216 | 2.6 | 6.1 | 0.00 | 0.00 | 0.00 | 50 | 976.4 |
| 20260508213249 | 47 | 61 | 2.6 | 7.8 | 0.00 | 0.00 | 0.00 | 49 | 976.5 |
| 20260508212749 | 47 | 68 | 3.5 | 8.7 | 0.00 | 0.00 | 0.00 | 48 | 976.3 |
| 20260508212249 | 48 | 64 | 4.3 | 8.7 | 0.00 | 0.00 | 0.00 | 47 | 976.4 |
| 20260508211749 | 48 | 68 | 3.5 | 8.7 | 0.00 | 0.00 | 0.00 | 47 | 976.4 |
| 20260508211249 | 48 | 60 | 3.5 | 7.8 | 0.00 | 0.00 | 0.00 | 46 | 976.4 |
| 20260508210749 | 48 | 92 | 2.6 | 7.8 | 0.00 | 0.00 | 0.00 | 45 | 976.4 |
| 20260508210219 | 48 | 199 | 2.6 | 6.1 | 0.00 | 0.00 | 0.00 | 45 | 976.3 |
| 20260508205719 | 48 | 59 | 2.6 | 6.1 | 0.00 | 0.00 | 0.00 | 44 | 976.3 |
| 20260508205219 | 49 | 195 | 2.6 | 7.8 | 0.00 | 0.00 | 0.00 | 45 | 976.4 |
| 20260508204719 | 49 | 229 | 2.6 | 7.8 | 0.00 | 0.00 | 0.00 | 45 | 976.3 |
| 20260508204219 | 48 | 200 | 2.6 | 6.1 | 0.00 | 0.00 | 0.00 | 45 | 976.3 |
| 20260508203719 | 48 | 231 | 1.7 | 6.1 | 0.00 | 0.00 | 0.00 | 44 | 976.2 |
| 20260508203219 | 49 | 246 | 1.7 | 5.2 | 0.00 | 0.00 | 0.00 | 43 | 976.2 |
| 20260508202719 | 49 | 335 | 1.7 | 5.2 | 0.00 | 0.00 | 0.00 | 43 | 976.1 |
| 20260508202219 | 49 | 237 | 1.7 | 5.2 | 0.00 | 0.00 | 0.00 | 42 | 976.1 |
| 20260508201719 | 49 | 293 | 1.7 | 5.2 | 0.00 | 0.00 | 0.00 | 41 | 976.1 |
| 20260508201219 | 49 | 257 | 1.7 | 5.2 | 0.00 | 0.00 | 0.00 | 41 | 976.2 |
| 20260508200718 | 49 | 253 | 1.7 | 4.3 | 0.00 | 0.00 | 0.00 | 40 | 976.1 |
| 20260508200148 | 49 | 244 | 1.7 | 4.3 | 0.00 | 0.00 | 0.00 | 40 | 976.2 |
| 20260508195618 | 49 | 226 | 1.7 | 4.3 | 0.00 | 0.00 | 0.00 | 40 | 976.0 |
| 20260508195118 | 50 | 232 | 1.7 | 4.3 | 0.00 | 0.00 | 0.00 | 40 | 976.0 |
| 20260508194618 | 50 | 239 | 2.6 | 6.1 | 0.00 | 0.00 | 0.00 | 39 | 976.0 |
| 20260508194118 | 50 | 155 | 2.6 | 6.1 | 0.00 | 0.00 | 0.00 | 39 | 976.0 |
| 20260508193618 | 50 | 153 | 2.6 | 5.2 | 0.00 | 0.00 | 0.00 | 39 | 976.0 |
| 20260508193118 | 50 | 172 | 2.6 | 5.2 | 0.00 | 0.00 | 0.00 | 39 | 976.0 |
| 20260508192618 | 50 | 234 | 1.7 | 4.3 | 0.00 | 0.00 | 0.00 | 40 | 976.0 |
| 20260508192048 | 51 | 170 | 1.7 | 3.5 | 0.00 | 0.00 | 0.00 | 41 | 976.0 |
| 20260508191548 | 51 | 272 | 1.7 | 3.5 | 0.00 | 0.00 | 0.00 | 40 | 976.0 |
| 20260508191048 | 51 | 210 | 1.7 | 4.3 | 0.00 | 0.00 | 0.00 | 40 | 976.0 |
| 20260508190548 | 52 | 236 | 1.7 | 5.2 | 0.00 | 0.00 | 0.00 | 40 | 975.6 |
| 20260508190048 | 52 | 131 | 2.6 | 6.1 | 0.00 | 0.00 | 0.00 | 39 | 976.0 |
| 20260508185518 | 53 | 136 | 3.5 | 8.7 | 0.00 | 0.00 | 0.00 | 39 | 976.0 |
| 20260508185018 | 53 | 174 | 2.6 | 8.7 | 0.00 | 0.00 | 0.00 | 37 | 976.0 |
| 20260508184518 | 53 | 153 | 1.7 | 4.3 | 0.00 | 0.00 | 0.00 | 38 | 976.0 |
| 20260508184018 | 53 | 241 | 1.7 | 4.3 | 0.00 | 0.00 | 0.00 | 37 | 975.6 |
| 20260508183518 | 53 | 268 | 1.7 | 3.5 | 0.00 | 0.00 | 0.00 | 37 | 976.0 |
| 20260508183018 | 54 | 241 | 1.7 | 4.3 | 0.00 | 0.00 | 0.00 | 37 | 975.5 |
| 20260508182518 | 54 | 227 | 1.7 | 4.3 | 0.00 | 0.00 | 0.00 | 36 | 975.5 |
| 20260508182018 | 54 | 245 | 1.7 | 4.3 | 0.00 | 0.00 | 0.00 | 36 | 975.6 |
| 20260508181518 | 54 | 251 | 1.7 | 4.3 | 0.00 | 0.00 | 0.00 | 36 | 975.6 |
| 20260508181018 | 55 | 220 | 1.7 | 5.2 | 0.00 | 0.00 | 0.00 | 35 | 975.6 |
| 20260508180518 | 56 | 232 | 1.7 | 5.2 | 0.00 | 0.00 | 0.00 | 35 | 975.6 |
| 20260508180018 | 56 | 43 | 1.7 | 5.2 | 0.00 | 0.00 | 0.00 | 32 | 975.6 |
| 20260508175518 | 56 | 166 | 0.9 | 2.6 | 0.00 | 0.00 | 0.00 | 32 | 975.5 |
| 20260508174948 | 57 | 246 | 0.9 | 2.6 | 0.00 | 0.00 | 0.00 | 33 | 975.5 |
| 20260508174448 | 57 | 226 | 0.9 | 3.5 | 0.00 | 0.00 | 0.00 | 32 | 975.3 |
| 20260508173948 | 57 | 114 | 0.9 | 3.5 | 0.00 | 0.00 | 0.00 | 32 | 975.5 |
| 20260508173448 | 57 | 84 | 0.9 | 4.3 | 0.00 | 0.00 | 0.00 | 32 | 975.5 |
| 20260508172948 | 58 | 164 | 1.7 | 4.3 | 0.00 | 0.00 | 0.00 | 31 | 975.4 |
| 20260508172448 | 58 | 72 | 0.9 | 3.5 | 0.00 | 0.00 | 0.00 | 30 | 975.4 |
| 20260508171948 | 58 | 206 | 0.9 | 5.2 | 0.00 | 0.00 | 0.00 | 30 | 975.3 |
| 20260508171448 | 58 | 27 | 1.7 | 5.2 | 0.00 | 0.00 | 0.00 | 29 | 975.3 |
| 20260508170948 | 58 | 188 | 1.7 | 5.2 | 0.00 | 0.00 | 0.00 | 30 | 975.4 |
| 20260508170448 | 58 | 72 | 1.7 | 5.2 | 0.00 | 0.00 | 0.00 | 28 | 975.4 |
| 20260508165918 | 59 | 103 | 0.9 | 3.5 | 0.00 | 0.00 | 0.00 | 30 | 975.4 |
| 20260508165418 | 59 | 192 | 1.7 | 6.1 | 0.00 | 0.00 | 0.00 | 30 | 975.4 |
| 20260508164918 | 59 | 259 | 1.7 | 6.1 | 0.00 | 0.00 | 0.00 | 29 | 975.4 |
| 20260508164417 | 59 | 200 | 1.7 | 3.5 | 0.00 | 0.00 | 0.00 | 28 | 975.6 |
| 20260508163847 | 60 | 244 | 1.7 | 3.5 | 0.00 | 0.00 | 0.00 | 30 | 975.6 |
| 20260508163317 | 59 | 160 | 1.7 | 3.5 | 0.00 | 0.00 | 0.00 | 29 | 975.6 |
| 20260508162817 | 59 | 173 | 1.7 | 7.0 | 0.00 | 0.00 | 0.00 | 28 | 975.6 |